sensor_id;sensor_type;location;lat;lon;timestamp;pressure;altitude;pressure_sealevel;temperature;humidity
67840;BME280;54636;51.684;5.142;2022-08-05T00:00:32;101496.16;;;19.48;79.11
67840;BME280;54636;51.684;5.142;2022-08-05T00:02:57;101535.41;;;19.67;79.42
67840;BME280;54636;51.684;5.142;2022-08-05T00:05:23;101532.31;;;19.58;79.73
67840;BME280;54636;51.684;5.142;2022-08-05T00:07:48;101542.50;;;19.63;80.01
67840;BME280;54636;51.684;5.142;2022-08-05T00:10:13;101527.84;;;19.55;79.96
67840;BME280;54636;51.684;5.142;2022-08-05T00:12:39;101526.50;;;19.61;79.79
67840;BME280;54636;51.684;5.142;2022-08-05T00:15:05;101536.91;;;19.68;79.89
67840;BME280;54636;51.684;5.142;2022-08-05T00:17:30;101529.41;;;19.50;80.25
67840;BME280;54636;51.684;5.142;2022-08-05T00:19:56;101552.78;;;19.62;79.78
67840;BME280;54636;51.684;5.142;2022-08-05T00:22:21;101558.53;;;19.64;80.02
67840;BME280;54636;51.684;5.142;2022-08-05T00:24:47;101543.56;;;19.60;79.57
67840;BME280;54636;51.684;5.142;2022-08-05T00:27:12;101546.31;;;19.60;79.94
67840;BME280;54636;51.684;5.142;2022-08-05T00:29:37;101537.56;;;19.42;79.73
67840;BME280;54636;51.684;5.142;2022-08-05T00:32:03;101545.63;;;19.40;80.05
67840;BME280;54636;51.684;5.142;2022-08-05T00:34:30;101553.78;;;19.46;79.97
67840;BME280;54636;51.684;5.142;2022-08-05T00:36:55;101566.13;;;19.58;79.60
67840;BME280;54636;51.684;5.142;2022-08-05T00:39:21;101546.78;;;19.45;79.34
67840;BME280;54636;51.684;5.142;2022-08-05T00:41:46;101562.94;;;19.54;80.00
67840;BME280;54636;51.684;5.142;2022-08-05T00:44:12;101570.16;;;19.57;79.47
67840;BME280;54636;51.684;5.142;2022-08-05T00:46:38;101552.44;;;19.53;79.65
67840;BME280;54636;51.684;5.142;2022-08-05T00:49:03;101544.03;;;19.45;79.62
67840;BME280;54636;51.684;5.142;2022-08-05T00:51:29;101555.16;;;19.39;79.38
67840;BME280;54636;51.684;5.142;2022-08-05T00:53:55;101569.81;;;19.48;79.56
67840;BME280;54636;51.684;5.142;2022-08-05T00:56:20;101559.31;;;19.46;79.00
67840;BME280;54636;51.684;5.142;2022-08-05T00:58:46;101559.31;;;19.46;79.02
67840;BME280;54636;51.684;5.142;2022-08-05T01:01:12;101576.81;;;19.49;79.07
67840;BME280;54636;51.684;5.142;2022-08-05T01:03:40;101568.47;;;19.35;78.87
67840;BME280;54636;51.684;5.142;2022-08-05T01:06:06;101579.94;;;19.39;78.30
67840;BME280;54636;51.684;5.142;2022-08-05T01:08:32;101594.91;;;19.44;78.77
67840;BME280;54636;51.684;5.142;2022-08-05T01:11:03;101575.13;;;19.27;78.21
67840;BME280;54636;51.684;5.142;2022-08-05T01:16:47;101586.06;;;19.32;77.71
67840;BME280;54636;51.684;5.142;2022-08-05T01:19:33;101608.00;;;19.38;78.02
67840;BME280;54636;51.684;5.142;2022-08-05T01:25:27;101621.34;;;19.34;78.12
67840;BME280;54636;51.684;5.142;2022-08-05T01:28:08;101621.41;;;19.28;77.37
67840;BME280;54636;51.684;5.142;2022-08-05T01:30:43;101637.13;;;19.33;77.75
67840;BME280;54636;51.684;5.142;2022-08-05T01:33:12;101609.28;;;19.18;77.70
67840;BME280;54636;51.684;5.142;2022-08-05T01:35:40;101590.44;;;19.03;77.39
67840;BME280;54636;51.684;5.142;2022-08-05T01:38:08;101607.34;;;19.13;77.64
67840;BME280;54636;51.684;5.142;2022-08-05T01:40:34;101611.00;;;19.21;77.89
67840;BME280;54636;51.684;5.142;2022-08-05T01:43:02;101587.09;;;19.11;77.72
67840;BME280;54636;51.684;5.142;2022-08-05T01:45:29;101604.81;;;19.15;77.79
67840;BME280;54636;51.684;5.142;2022-08-05T01:47:58;101588.16;;;19.07;78.28
67840;BME280;54636;51.684;5.142;2022-08-05T01:50:30;101579.75;;;19.00;77.70
67840;BME280;54636;51.684;5.142;2022-08-05T01:53:01;101594.91;;;19.06;78.50
67840;BME280;54636;51.684;5.142;2022-08-05T01:55:30;101585.84;;;18.93;78.73
67840;BME280;54636;51.684;5.142;2022-08-05T01:57:57;101593.94;;;19.04;78.46
67840;BME280;54636;51.684;5.142;2022-08-05T02:00:23;101561.13;;;18.87;79.10
67840;BME280;54636;51.684;5.142;2022-08-05T02:03:04;101573.63;;;18.88;79.09
67840;BME280;54636;51.684;5.142;2022-08-05T02:05:32;101572.13;;;18.87;79.13
67840;BME280;54636;51.684;5.142;2022-08-05T02:07:58;101583.75;;;18.99;79.49
67840;BME280;54636;51.684;5.142;2022-08-05T02:10:26;101583.75;;;18.99;79.77
67840;BME280;54636;51.684;5.142;2022-08-05T02:13:15;101570.59;;;18.92;79.41
67840;BME280;54636;51.684;5.142;2022-08-05T02:15:49;101550.97;;;18.82;80.18
67840;BME280;54636;51.684;5.142;2022-08-05T02:18:32;101536.69;;;18.84;79.80
67840;BME280;54636;51.684;5.142;2022-08-05T02:21:12;101550.88;;;18.69;80.38
67840;BME280;54636;51.684;5.142;2022-08-05T02:23:40;101571.78;;;18.78;81.27
67840;BME280;54636;51.684;5.142;2022-08-05T02:26:08;101555.13;;;18.70;81.46
67840;BME280;54636;51.684;5.142;2022-08-05T02:28:37;101556.69;;;18.65;82.22
67840;BME280;54636;51.684;5.142;2022-08-05T02:31:14;101569.91;;;18.67;82.21
67840;BME280;54636;51.684;5.142;2022-08-05T02:33:50;101550.75;;;18.56;82.73
67840;BME280;54636;51.684;5.142;2022-08-05T02:36:18;101565.22;;;18.62;82.89
67840;BME280;54636;51.684;5.142;2022-08-05T02:38:46;101581.47;;;18.60;82.77
67840;BME280;54636;51.684;5.142;2022-08-05T02:41:13;101574.59;;;18.48;83.48
67840;BME280;54636;51.684;5.142;2022-08-05T02:43:40;101587.78;;;18.55;83.70
67840;BME280;54636;51.684;5.142;2022-08-05T02:46:07;101578.16;;;18.42;84.24
67840;BME280;54636;51.684;5.142;2022-08-05T02:48:33;101574.72;;;18.36;84.21
67840;BME280;54636;51.684;5.142;2022-08-05T02:51:00;101580.22;;;18.36;84.15
67840;BME280;54636;51.684;5.142;2022-08-05T02:53:27;101597.06;;;18.52;83.89
67840;BME280;54636;51.684;5.142;2022-08-05T02:55:54;101587.91;;;18.43;84.41
67840;BME280;54636;51.684;5.142;2022-08-05T02:58:21;101595.00;;;18.58;84.29
67840;BME280;54636;51.684;5.142;2022-08-05T03:00:47;101588.75;;;18.57;83.92
67840;BME280;54636;51.684;5.142;2022-08-05T03:03:18;101569.63;;;18.46;84.22
67840;BME280;54636;51.684;5.142;2022-08-05T03:05:45;101583.25;;;18.57;84.10
67840;BME280;54636;51.684;5.142;2022-08-05T03:08:12;101570.59;;;18.49;84.39
67840;BME280;54636;51.684;5.142;2022-08-05T03:10:41;101571.41;;;18.43;84.32
67840;BME280;54636;51.684;5.142;2022-08-05T03:13:11;101570.13;;;18.44;84.16
67840;BME280;54636;51.684;5.142;2022-08-05T03:15:37;101572.38;;;18.46;84.52
67840;BME280;54636;51.684;5.142;2022-08-05T03:18:02;101587.56;;;18.53;84.29
67840;BME280;54636;51.684;5.142;2022-08-05T03:20:27;101585.63;;;18.48;84.79
67840;BME280;54636;51.684;5.142;2022-08-05T03:22:53;101599.53;;;18.55;84.46
67840;BME280;54636;51.684;5.142;2022-08-05T03:25:19;101595.88;;;18.47;84.74
67840;BME280;54636;51.684;5.142;2022-08-05T03:27:47;101606.53;;;18.56;84.57
67840;BME280;54636;51.684;5.142;2022-08-05T03:30:12;101594.84;;;18.50;84.47
67840;BME280;54636;51.684;5.142;2022-08-05T03:32:38;101613.25;;;18.61;84.10
67840;BME280;54636;51.684;5.142;2022-08-05T03:35:04;101629.25;;;18.62;84.62
67840;BME280;54636;51.684;5.142;2022-08-05T03:37:30;101620.47;;;18.64;84.16
67840;BME280;54636;51.684;5.142;2022-08-05T03:39:57;101623.97;;;18.64;84.51
67840;BME280;54636;51.684;5.142;2022-08-05T03:42:23;101619.53;;;18.56;85.12
67840;BME280;54636;51.684;5.142;2022-08-05T03:44:48;101590.94;;;18.40;84.84
67840;BME280;54636;51.684;5.142;2022-08-05T03:47:14;101586.69;;;18.39;85.23
67840;BME280;54636;51.684;5.142;2022-08-05T03:49:39;101582.22;;;18.36;85.41
67840;BME280;54636;51.684;5.142;2022-08-05T03:52:08;101599.19;;;18.40;85.30
67840;BME280;54636;51.684;5.142;2022-08-05T03:54:51;101598.56;;;18.28;85.52
67840;BME280;54636;51.684;5.142;2022-08-05T03:57:21;101592.72;;;18.13;86.38
67840;BME280;54636;51.684;5.142;2022-08-05T03:59:55;101599.25;;;18.10;86.67
67840;BME280;54636;51.684;5.142;2022-08-05T04:02:26;101583.59;;;17.99;87.02
67840;BME280;54636;51.684;5.142;2022-08-05T04:04:52;101574.25;;;17.84;87.70
67840;BME280;54636;51.684;5.142;2022-08-05T04:07:18;101587.47;;;17.85;87.94
67840;BME280;54636;51.684;5.142;2022-08-05T04:09:44;101590.03;;;17.77;88.24
67840;BME280;54636;51.684;5.142;2022-08-05T04:12:10;101595.06;;;17.73;88.89
67840;BME280;54636;51.684;5.142;2022-08-05T04:14:36;101594.13;;;17.65;88.79
67840;BME280;54636;51.684;5.142;2022-08-05T04:17:02;101591.38;;;17.65;88.93
67840;BME280;54636;51.684;5.142;2022-08-05T04:19:28;101574.50;;;17.50;89.04
67840;BME280;54636;51.684;5.142;2022-08-05T04:21:53;101574.56;;;17.39;89.54
67840;BME280;54636;51.684;5.142;2022-08-05T04:24:19;101601.72;;;17.48;89.67
67840;BME280;54636;51.684;5.142;2022-08-05T04:26:45;101593.53;;;17.42;90.21
67840;BME280;54636;51.684;5.142;2022-08-05T04:29:10;101610.25;;;17.44;90.49
67840;BME280;54636;51.684;5.142;2022-08-05T04:31:36;101594.31;;;17.37;90.25
67840;BME280;54636;51.684;5.142;2022-08-05T04:34:02;101597.28;;;17.39;90.39
67840;BME280;54636;51.684;5.142;2022-08-05T04:36:27;101599.28;;;17.39;90.39
67840;BME280;54636;51.684;5.142;2022-08-05T04:38:52;101583.88;;;17.25;90.28
67840;BME280;54636;51.684;5.142;2022-08-05T04:41:19;101605.78;;;17.36;90.48
67840;BME280;54636;51.684;5.142;2022-08-05T04:43:45;101595.09;;;17.32;90.26
67840;BME280;54636;51.684;5.142;2022-08-05T04:46:10;101587.91;;;17.18;90.63
67840;BME280;54636;51.684;5.142;2022-08-05T04:48:36;101583.69;;;17.17;90.60
67840;BME280;54636;51.684;5.142;2022-08-05T04:51:01;101605.41;;;17.15;90.94
67840;BME280;54636;51.684;5.142;2022-08-05T04:53:26;101603.66;;;17.12;91.40
67840;BME280;54636;51.684;5.142;2022-08-05T04:55:53;101597.47;;;17.06;91.13
67840;BME280;54636;51.684;5.142;2022-08-05T04:58:18;101603.44;;;17.10;90.94
67840;BME280;54636;51.684;5.142;2022-08-05T05:00:44;101588.06;;;16.90;91.58
67840;BME280;54636;51.684;5.142;2022-08-05T05:03:09;101599.75;;;16.96;91.64
67840;BME280;54636;51.684;5.142;2022-08-05T05:05:36;101605.22;;;17.02;92.72
67840;BME280;54636;51.684;5.142;2022-08-05T05:08:03;101585.84;;;16.89;91.85
67840;BME280;54636;51.684;5.142;2022-08-05T05:10:31;101585.03;;;16.94;91.54
67840;BME280;54636;51.684;5.142;2022-08-05T05:12:57;101601.22;;;17.03;91.69
67840;BME280;54636;51.684;5.142;2022-08-05T05:15:23;101602.25;;;16.94;91.71
67840;BME280;54636;51.684;5.142;2022-08-05T05:17:49;101614.44;;;17.04;91.49
67840;BME280;54636;51.684;5.142;2022-08-05T05:20:14;101605.72;;;17.00;91.53
67840;BME280;54636;51.684;5.142;2022-08-05T05:22:40;101616.19;;;17.02;91.36
67840;BME280;54636;51.684;5.142;2022-08-05T05:25:06;101599.78;;;16.91;91.51
67840;BME280;54636;51.684;5.142;2022-08-05T05:27:34;101614.19;;;17.02;91.63
67840;BME280;54636;51.684;5.142;2022-08-05T05:29:59;101615.72;;;16.98;91.52
67840;BME280;54636;51.684;5.142;2022-08-05T05:32:25;101622.44;;;16.97;91.75
67840;BME280;54636;51.684;5.142;2022-08-05T05:34:51;101616.97;;;16.97;91.81
67840;BME280;54636;51.684;5.142;2022-08-05T05:37:16;101618.47;;;16.98;91.95
67840;BME280;54636;51.684;5.142;2022-08-05T05:39:42;101625.19;;;17.02;91.63
67840;BME280;54636;51.684;5.142;2022-08-05T05:42:07;101631.13;;;17.12;91.38
67840;BME280;54636;51.684;5.142;2022-08-05T05:44:33;101618.41;;;17.09;90.64
67840;BME280;54636;51.684;5.142;2022-08-05T05:46:59;101636.81;;;17.25;90.52
67840;BME280;54636;51.684;5.142;2022-08-05T05:49:25;101621.59;;;17.24;89.68
67840;BME280;54636;51.684;5.142;2022-08-05T05:51:51;101634.97;;;17.39;88.83
67840;BME280;54636;51.684;5.142;2022-08-05T05:54:17;101637.59;;;17.56;88.11
67840;BME280;54636;51.684;5.142;2022-08-05T05:56:42;101653.75;;;17.76;87.62
67840;BME280;54636;51.684;5.142;2022-08-05T05:59:08;101651.69;;;17.82;87.21
67840;BME280;54636;51.684;5.142;2022-08-05T06:01:38;101655.06;;;17.99;86.50
67840;BME280;54636;51.684;5.142;2022-08-05T06:04:08;101656.47;;;18.12;86.16
67840;BME280;54636;51.684;5.142;2022-08-05T06:06:34;101644.97;;;18.13;85.07
67840;BME280;54636;51.684;5.142;2022-08-05T06:09:00;101667.53;;;18.30;84.86
67840;BME280;54636;51.684;5.142;2022-08-05T06:11:26;101648.34;;;18.25;84.23
67840;BME280;54636;51.684;5.142;2022-08-05T06:13:51;101671.44;;;18.40;84.01
67840;BME280;54636;51.684;5.142;2022-08-05T06:16:17;101670.72;;;18.40;83.84
67840;BME280;54636;51.684;5.142;2022-08-05T06:18:42;101671.75;;;18.37;83.17
67840;BME280;54636;51.684;5.142;2022-08-05T06:21:07;101671.22;;;18.38;83.23
67840;BME280;54636;51.684;5.142;2022-08-05T06:23:33;101672.84;;;18.53;82.33
67840;BME280;54636;51.684;5.142;2022-08-05T06:25:58;101665.09;;;18.51;81.75
67840;BME280;54636;51.684;5.142;2022-08-05T06:28:24;101662.63;;;18.48;81.75
67840;BME280;54636;51.684;5.142;2022-08-05T06:30:49;101661.75;;;18.64;81.47
67840;BME280;54636;51.684;5.142;2022-08-05T06:33:15;101665.88;;;18.76;79.89
67840;BME280;54636;51.684;5.142;2022-08-05T06:35:40;101677.94;;;18.92;79.56
67840;BME280;54636;51.684;5.142;2022-08-05T06:38:05;101660.31;;;18.82;79.20
67840;BME280;54636;51.684;5.142;2022-08-05T06:40:31;101667.69;;;18.92;78.76
67840;BME280;54636;51.684;5.142;2022-08-05T06:42:56;101683.84;;;19.01;79.07
67840;BME280;54636;51.684;5.142;2022-08-05T06:45:22;101671.28;;;19.06;77.75
67840;BME280;54636;51.684;5.142;2022-08-05T06:47:47;101642.09;;;18.79;78.06
67840;BME280;54636;51.684;5.142;2022-08-05T06:50:13;101675.66;;;18.96;77.81
67840;BME280;54636;51.684;5.142;2022-08-05T06:52:38;101696.41;;;18.97;78.24
67840;BME280;54636;51.684;5.142;2022-08-05T06:55:04;101680.47;;;18.90;78.52
67840;BME280;54636;51.684;5.142;2022-08-05T06:57:30;101702.75;;;19.11;77.26
67840;BME280;54636;51.684;5.142;2022-08-05T06:59:55;101705.03;;;19.31;77.80
67840;BME280;54636;51.684;5.142;2022-08-05T07:02:21;101703.69;;;19.37;76.57
67840;BME280;54636;51.684;5.142;2022-08-05T07:04:46;101711.50;;;19.33;76.25
67840;BME280;54636;51.684;5.142;2022-08-05T07:07:11;101696.44;;;19.16;76.37
67840;BME280;54636;51.684;5.142;2022-08-05T07:09:37;101713.66;;;19.22;76.75
67840;BME280;54636;51.684;5.142;2022-08-05T07:12:02;101715.38;;;19.44;75.80
67840;BME280;54636;51.684;5.142;2022-08-05T07:14:28;101717.31;;;19.49;75.26
67840;BME280;54636;51.684;5.142;2022-08-05T07:17:12;101725.16;;;19.63;75.54
67840;BME280;54636;51.684;5.142;2022-08-05T07:19:37;101728.41;;;19.81;73.58
67840;BME280;54636;51.684;5.142;2022-08-05T07:22:03;101728.72;;;19.77;73.10
67840;BME280;54636;51.684;5.142;2022-08-05T07:24:29;101737.97;;;19.61;73.82
67840;BME280;54636;51.684;5.142;2022-08-05T07:26:54;101735.50;;;19.57;73.49
67840;BME280;54636;51.684;5.142;2022-08-05T07:29:19;101737.34;;;19.68;73.42
67840;BME280;54636;51.684;5.142;2022-08-05T07:31:45;101741.81;;;19.52;73.29
67840;BME280;54636;51.684;5.142;2022-08-05T07:34:10;101744.72;;;19.41;73.49
67840;BME280;54636;51.684;5.142;2022-08-05T07:36:35;101742.09;;;19.30;73.93
67840;BME280;54636;51.684;5.142;2022-08-05T07:39:04;101747.25;;;19.39;74.81
67840;BME280;54636;51.684;5.142;2022-08-05T07:41:29;101733.19;;;19.61;73.59
67840;BME280;54636;51.684;5.142;2022-08-05T07:43:56;101740.88;;;19.68;72.04
67840;BME280;54636;51.684;5.142;2022-08-05T07:46:22;101745.09;;;19.88;71.10
67840;BME280;54636;51.684;5.142;2022-08-05T07:48:48;101742.44;;;19.83;70.86
67840;BME280;54636;51.684;5.142;2022-08-05T07:51:13;101755.84;;;19.92;71.10
67840;BME280;54636;51.684;5.142;2022-08-05T07:53:40;101769.94;;;20.20;69.97
67840;BME280;54636;51.684;5.142;2022-08-05T07:56:06;101766.97;;;20.50;69.09
67840;BME280;54636;51.684;5.142;2022-08-05T07:58:31;101782.41;;;20.59;67.07
67840;BME280;54636;51.684;5.142;2022-08-05T08:00:57;101778.25;;;20.33;67.39
67840;BME280;54636;51.684;5.142;2022-08-05T08:03:22;101786.69;;;20.22;67.47
67840;BME280;54636;51.684;5.142;2022-08-05T08:05:48;101792.06;;;20.33;67.05
67840;BME280;54636;51.684;5.142;2022-08-05T08:08:17;101778.47;;;20.35;65.36
67840;BME280;54636;51.684;5.142;2022-08-05T08:10:42;101779.53;;;20.32;64.85
67840;BME280;54636;51.684;5.142;2022-08-05T08:13:08;101781.44;;;20.56;64.63
67840;BME280;54636;51.684;5.142;2022-08-05T08:15:33;101784.22;;;20.69;63.96
67840;BME280;54636;51.684;5.142;2022-08-05T08:17:58;101792.09;;;20.79;62.57
67840;BME280;54636;51.684;5.142;2022-08-05T08:20:24;101778.94;;;20.98;62.58
67840;BME280;54636;51.684;5.142;2022-08-05T08:22:54;101787.69;;;21.28;62.12
67840;BME280;54636;51.684;5.142;2022-08-05T08:25:20;101782.38;;;21.30;59.37
67840;BME280;54636;51.684;5.142;2022-08-05T08:27:46;101789.81;;;21.35;60.16
67840;BME280;54636;51.684;5.142;2022-08-05T08:30:12;101780.34;;;21.31;55.95
67840;BME280;54636;51.684;5.142;2022-08-05T08:32:38;101764.06;;;21.14;56.86
67840;BME280;54636;51.684;5.142;2022-08-05T08:35:04;101804.88;;;21.48;58.05
67840;BME280;54636;51.684;5.142;2022-08-05T08:37:29;101801.97;;;21.66;57.22
67840;BME280;54636;51.684;5.142;2022-08-05T08:39:55;101792.34;;;21.94;56.56
67840;BME280;54636;51.684;5.142;2022-08-05T08:42:21;101804.81;;;22.42;55.64
67840;BME280;54636;51.684;5.142;2022-08-05T08:44:48;101806.94;;;22.98;53.37
67840;BME280;54636;51.684;5.142;2022-08-05T08:47:14;101821.81;;;23.52;50.86
67840;BME280;54636;51.684;5.142;2022-08-05T08:49:44;101827.34;;;23.88;49.14
67840;BME280;54636;51.684;5.142;2022-08-05T08:52:16;101823.31;;;23.53;48.48
67840;BME280;54636;51.684;5.142;2022-08-05T08:54:44;101809.38;;;23.38;50.02
67840;BME280;54636;51.684;5.142;2022-08-05T08:57:12;101810.44;;;23.27;48.94
67840;BME280;54636;51.684;5.142;2022-08-05T08:59:38;101819.00;;;23.45;51.00
67840;BME280;54636;51.684;5.142;2022-08-05T09:02:05;101821.16;;;23.67;47.82
67840;BME280;54636;51.684;5.142;2022-08-05T09:04:34;101822.34;;;23.51;48.30
67840;BME280;54636;51.684;5.142;2022-08-05T09:07:03;101814.94;;;23.38;47.42
67840;BME280;54636;51.684;5.142;2022-08-05T09:09:29;101838.09;;;23.20;44.16
67840;BME280;54636;51.684;5.142;2022-08-05T09:11:55;101837.00;;;22.94;45.20
67840;BME280;54636;51.684;5.142;2022-08-05T09:14:21;101833.78;;;22.83;46.98
67840;BME280;54636;51.684;5.142;2022-08-05T09:16:47;101828.84;;;22.89;45.43
67840;BME280;54636;51.684;5.142;2022-08-05T09:19:12;101839.09;;;23.02;44.77
67840;BME280;54636;51.684;5.142;2022-08-05T09:21:37;101849.97;;;22.99;44.38
67840;BME280;54636;51.684;5.142;2022-08-05T09:24:07;101848.75;;;23.08;43.97
67840;BME280;54636;51.684;5.142;2022-08-05T09:26:35;101852.47;;;22.90;43.16
67840;BME280;54636;51.684;5.142;2022-08-05T09:29:04;101853.09;;;22.96;44.59
67840;BME280;54636;51.684;5.142;2022-08-05T09:31:30;101857.25;;;23.10;47.04
67840;BME280;54636;51.684;5.142;2022-08-05T09:36:23;101861.69;;;23.42;41.25
67840;BME280;54636;51.684;5.142;2022-08-05T09:38:59;101850.25;;;23.45;43.31
67840;BME280;54636;51.684;5.142;2022-08-05T09:41:25;101874.91;;;23.92;40.61
67840;BME280;54636;51.684;5.142;2022-08-05T09:43:50;101858.66;;;24.12;40.63
67840;BME280;54636;51.684;5.142;2022-08-05T09:46:30;101882.44;;;24.36;41.22
67840;BME280;54636;51.684;5.142;2022-08-05T09:48:57;101883.50;;;24.25;37.89
67840;BME280;54636;51.684;5.142;2022-08-05T09:51:49;101885.94;;;24.28;41.18
67840;BME280;54636;51.684;5.142;2022-08-05T09:54:15;101872.25;;;24.30;37.04
67840;BME280;54636;51.684;5.142;2022-08-05T09:56:42;101883.56;;;24.40;37.02
67840;BME280;54636;51.684;5.142;2022-08-05T09:59:12;101883.94;;;24.37;37.73
67840;BME280;54636;51.684;5.142;2022-08-05T10:01:41;101894.88;;;24.42;38.78
67840;BME280;54636;51.684;5.142;2022-08-05T10:04:10;101881.00;;;24.50;38.47
67840;BME280;54636;51.684;5.142;2022-08-05T10:06:40;101883.22;;;24.59;38.26
67840;BME280;54636;51.684;5.142;2022-08-05T10:09:16;101893.75;;;24.45;38.75
67840;BME280;54636;51.684;5.142;2022-08-05T10:11:43;101896.88;;;24.26;40.03
67840;BME280;54636;51.684;5.142;2022-08-05T10:14:27;101895.81;;;24.45;38.98
67840;BME280;54636;51.684;5.142;2022-08-05T10:16:54;101893.75;;;24.45;39.21
67840;BME280;54636;51.684;5.142;2022-08-05T10:19:22;101893.25;;;24.70;39.08
67840;BME280;54636;51.684;5.142;2022-08-05T10:21:47;101908.59;;;24.86;39.69
67840;BME280;54636;51.684;5.142;2022-08-05T10:24:14;101897.31;;;24.76;41.02
67840;BME280;54636;51.684;5.142;2022-08-05T10:26:41;101899.72;;;24.87;42.48
67840;BME280;54636;51.684;5.142;2022-08-05T10:29:07;101906.78;;;24.96;40.65
67840;BME280;54636;51.684;5.142;2022-08-05T10:31:33;101908.25;;;24.89;40.36
67840;BME280;54636;51.684;5.142;2022-08-05T10:33:59;101912.31;;;24.81;41.44
67840;BME280;54636;51.684;5.142;2022-08-05T10:36:24;101909.88;;;24.47;42.75
67840;BME280;54636;51.684;5.142;2022-08-05T10:38:51;101918.53;;;24.28;41.85
67840;BME280;54636;51.684;5.142;2022-08-05T10:41:52;101919.25;;;24.28;43.52
67840;BME280;54636;51.684;5.142;2022-08-05T10:44:20;101915.22;;;24.37;42.13
67840;BME280;54636;51.684;5.142;2022-08-05T10:46:54;101891.44;;;24.13;42.04
67840;BME280;54636;51.684;5.142;2022-08-05T10:49:22;101917.59;;;24.25;41.89
67840;BME280;54636;51.684;5.142;2022-08-05T10:51:50;101918.84;;;24.24;40.66
67840;BME280;54636;51.684;5.142;2022-08-05T10:54:21;101930.28;;;24.65;41.67
67840;BME280;54636;51.684;5.142;2022-08-05T10:56:49;101935.31;;;25.04;40.07
67840;BME280;54636;51.684;5.142;2022-08-05T10:59:24;101941.81;;;25.14;40.50
67840;BME280;54636;51.684;5.142;2022-08-05T11:02:05;101948.50;;;25.11;41.90
67840;BME280;54636;51.684;5.142;2022-08-05T11:04:45;101937.88;;;24.79;43.19
67840;BME280;54636;51.684;5.142;2022-08-05T11:07:10;101941.97;;;24.93;43.06
67840;BME280;54636;51.684;5.142;2022-08-05T11:09:46;101958.13;;;25.25;43.15
67840;BME280;54636;51.684;5.142;2022-08-05T11:15:11;101957.75;;;25.14;41.03
67840;BME280;54636;51.684;5.142;2022-08-05T11:17:41;101955.84;;;24.93;40.15
67840;BME280;54636;51.684;5.142;2022-08-05T11:22:53;101975.91;;;25.22;37.28
67840;BME280;54636;51.684;5.142;2022-08-05T11:25:38;101975.56;;;25.18;36.45
67840;BME280;54636;51.684;5.142;2022-08-05T11:35:56;101979.19;;;24.68;36.46
67840;BME280;54636;51.684;5.142;2022-08-05T11:41:16;101997.41;;;24.33;38.61
67840;BME280;54636;51.684;5.142;2022-08-05T11:43:43;102007.81;;;24.47;38.61
67840;BME280;54636;51.684;5.142;2022-08-05T11:46:09;101987.50;;;24.60;37.67
67840;BME280;54636;51.684;5.142;2022-08-05T11:48:35;102012.19;;;24.94;37.30
67840;BME280;54636;51.684;5.142;2022-08-05T11:51:06;102003.84;;;24.94;37.37
67840;BME280;54636;51.684;5.142;2022-08-05T11:53:31;102014.84;;;25.07;38.83
67840;BME280;54636;51.684;5.142;2022-08-05T11:55:59;102025.00;;;24.97;36.57
67840;BME280;54636;51.684;5.142;2022-08-05T11:58:36;102022.94;;;24.90;37.29
67840;BME280;54636;51.684;5.142;2022-08-05T12:01:10;102004.94;;;24.68;36.96
67840;BME280;54636;51.684;5.142;2022-08-05T12:03:54;102021.44;;;24.81;37.76
67840;BME280;54636;51.684;5.142;2022-08-05T12:06:22;102030.84;;;24.71;35.01
67840;BME280;54636;51.684;5.142;2022-08-05T12:08:50;102017.56;;;24.33;35.70
67840;BME280;54636;51.684;5.142;2022-08-05T12:11:24;102013.34;;;24.04;36.40
67840;BME280;54636;51.684;5.142;2022-08-05T12:13:53;102038.19;;;23.81;36.51
67840;BME280;54636;51.684;5.142;2022-08-05T12:16:19;102031.00;;;23.85;37.50
67840;BME280;54636;51.684;5.142;2022-08-05T12:18:46;101991.72;;;23.53;36.30
67840;BME280;54636;51.684;5.142;2022-08-05T12:21:17;102009.03;;;23.67;37.39
67840;BME280;54636;51.684;5.142;2022-08-05T12:24:00;102033.78;;;23.85;38.96
67840;BME280;54636;51.684;5.142;2022-08-05T12:26:36;102042.88;;;23.93;36.58
67840;BME280;54636;51.684;5.142;2022-08-05T12:29:07;102031.06;;;23.93;33.70
67840;BME280;54636;51.684;5.142;2022-08-05T12:31:34;102013.16;;;23.73;35.01
67840;BME280;54636;51.684;5.142;2022-08-05T12:34:05;102043.34;;;23.77;34.61
67840;BME280;54636;51.684;5.142;2022-08-05T12:36:31;102034.41;;;23.71;34.22
67840;BME280;54636;51.684;5.142;2022-08-05T12:38:58;102013.59;;;23.56;35.58
67840;BME280;54636;51.684;5.142;2022-08-05T12:41:29;102014.72;;;23.61;35.62
67840;BME280;54636;51.684;5.142;2022-08-05T12:43:57;102031.03;;;23.64;33.65
67840;BME280;54636;51.684;5.142;2022-08-05T12:46:25;102047.53;;;23.70;35.90
67840;BME280;54636;51.684;5.142;2022-08-05T12:49:12;102019.78;;;23.49;35.92
67840;BME280;54636;51.684;5.142;2022-08-05T12:51:49;102006.16;;;23.30;36.56
67840;BME280;54636;51.684;5.142;2022-08-05T12:54:31;102051.75;;;23.63;36.76
67840;BME280;54636;51.684;5.142;2022-08-05T12:56:59;102051.75;;;23.63;35.49
67840;BME280;54636;51.684;5.142;2022-08-05T12:59:26;102050.38;;;23.57;34.99
67840;BME280;54636;51.684;5.142;2022-08-05T13:04:19;102064.50;;;23.46;34.76
67840;BME280;54636;51.684;5.142;2022-08-05T13:06:45;102051.78;;;23.50;35.56
67840;BME280;54636;51.684;5.142;2022-08-05T13:09:11;102057.09;;;23.61;35.09
67840;BME280;54636;51.684;5.142;2022-08-05T13:11:42;102063.16;;;23.60;36.78
67840;BME280;54636;51.684;5.142;2022-08-05T13:14:16;102075.47;;;23.72;35.96
67840;BME280;54636;51.684;5.142;2022-08-05T13:16:49;102071.22;;;23.71;36.38
67840;BME280;54636;51.684;5.142;2022-08-05T13:19:15;102019.22;;;23.22;35.98
67840;BME280;54636;51.684;5.142;2022-08-05T13:21:41;102074.41;;;23.54;35.85